KEWB/EWB METAR and TAF weather

Enter ICAO airport designator
Station Type Date Time Source
KEWB METAR 2018/12/12 10:53 UTC NOAA

KEWB 121053Z AUTO 30004KT 10SM CLR M03/M08 A2993 RMK AO2 SLP134 T10281078


Station Type Date Time Source
KEWB Decoded METAR 2018/12/12 10:53 UTC NOAA

NEW BEDFORD REGIONAL AIRPORT, MA, United States (KEWB) 41-41N 070-58W 23M
Dec 12, 2018 - 05:53 AM EST / 2018.12.12 1053 UTC
Wind: from the WNW (300 degrees) at 5 MPH (4 KT):0
Visibility: 10 mile(s):0
Sky conditions: clear
Temperature: 27.0 F (-2.8 C)
Windchill: 21 F (-6 C):1
Dew Point: 18.0 F (-7.8 C)
Relative Humidity: 68%
Pressure (altimeter): 29.93 in. Hg (1013 hPa)
ob: KEWB 121053Z AUTO 30004KT 10SM CLR M03/M08 A2993 RMK AO2 SLP134 T10281078
cycle: 11

Station Type Date Time Source
KEWB TAF UTC NOAA

Error!


Example: see airport list